createdAt,value
2018-09-25T00:00:46.478Z,31.10
2018-09-25T00:03:22.804Z,31.10
2018-09-25T00:05:59.070Z,31.10
2018-09-25T00:08:35.297Z,31.10
2018-09-25T00:11:11.736Z,31.10
2018-09-25T00:13:48.747Z,31.00
2018-09-25T00:16:24.840Z,31.00
2018-09-25T00:19:01.531Z,31.00
2018-09-25T00:21:37.697Z,31.00
2018-09-25T00:24:13.924Z,31.00
2018-09-25T00:26:50.105Z,31.00
2018-09-25T00:29:28.012Z,31.00
2018-09-25T00:32:03.912Z,30.90
2018-09-25T00:34:40.445Z,30.90
2018-09-25T00:37:16.573Z,30.90
2018-09-25T00:39:53.321Z,30.90
2018-09-25T00:42:29.264Z,30.90
2018-09-25T00:45:05.550Z,30.90
2018-09-25T00:47:41.701Z,30.80
2018-09-25T00:50:17.922Z,30.90
2018-09-25T00:52:53.933Z,30.90
2018-09-25T00:55:30.729Z,30.90
2018-09-25T00:58:06.941Z,30.80
2018-09-25T01:00:43.931Z,30.80
2018-09-25T01:03:19.930Z,30.80
2018-09-25T01:05:56.450Z,30.80
2018-09-25T01:08:32.625Z,30.80
2018-09-25T01:11:08.876Z,30.80
2018-09-25T01:13:46.039Z,30.80
2018-09-25T01:16:22.393Z,30.80
2018-09-25T01:18:58.561Z,30.80
2018-09-25T01:21:35.046Z,30.80
2018-09-25T01:24:11.109Z,30.80
2018-09-25T01:26:47.430Z,30.80
2018-09-25T01:29:23.883Z,30.70
2018-09-25T01:32:01.873Z,30.80
2018-09-25T01:34:38.086Z,30.70
2018-09-25T01:37:14.208Z,30.70
2018-09-25T01:39:50.417Z,30.70
2018-09-25T01:42:26.999Z,30.70
2018-09-25T01:45:03.203Z,30.60
2018-09-25T01:47:39.765Z,30.60
2018-09-25T01:50:15.623Z,30.60
2018-09-25T01:52:52.108Z,30.70
2018-09-25T01:55:28.027Z,30.60
2018-09-25T01:58:04.169Z,30.60
2018-09-25T02:00:40.158Z,30.60
2018-09-25T02:03:16.734Z,30.60
2018-09-25T02:05:52.717Z,30.60
2018-09-25T02:08:28.551Z,30.60
2018-09-25T02:11:04.178Z,30.60
2018-09-25T02:13:40.570Z,30.50
2018-09-25T02:16:16.886Z,30.50
2018-09-25T02:18:53.482Z,30.60
2018-09-25T02:21:29.545Z,30.60
2018-09-25T02:24:06.020Z,30.60
2018-09-25T02:26:42.495Z,30.60
2018-09-25T02:29:18.703Z,30.60
2018-09-25T02:31:54.801Z,30.60
2018-09-25T02:34:32.455Z,30.60
2018-09-25T02:37:08.342Z,30.60
2018-09-25T02:39:46.662Z,30.60
2018-09-25T02:42:22.742Z,30.70
2018-09-25T02:44:59.098Z,30.70
2018-09-25T02:47:35.305Z,30.70
2018-09-25T02:50:11.794Z,30.80
2018-09-25T02:52:48.871Z,30.80
2018-09-25T02:55:25.254Z,30.90
2018-09-25T02:58:02.011Z,31.00
2018-09-25T03:00:39.365Z,31.00
2018-09-25T03:03:16.366Z,31.00
2018-09-25T03:05:52.407Z,31.20
2018-09-25T03:08:28.953Z,31.20
2018-09-25T03:11:05.246Z,31.30
2018-09-25T03:13:41.014Z,31.40
2018-09-25T03:16:17.838Z,31.40
2018-09-25T03:18:53.994Z,31.60
2018-09-25T03:21:30.534Z,31.80
2018-09-25T03:24:06.955Z,31.90
2018-09-25T03:26:43.155Z,32.00
2018-09-25T03:29:19.233Z,32.10
2018-09-25T03:31:55.561Z,32.20
2018-09-25T03:34:32.925Z,32.30
2018-09-25T03:37:10.396Z,32.40
2018-09-25T03:39:46.483Z,32.60
2018-09-25T03:42:22.842Z,32.80
2018-09-25T03:44:58.790Z,32.90
2018-09-25T03:47:34.890Z,33.30
2018-09-25T03:50:11.096Z,34.10
2018-09-25T03:52:47.781Z,34.90
2018-09-25T03:55:23.573Z,35.20
2018-09-25T03:58:00.622Z,34.90
2018-09-25T04:00:36.783Z,34.50
2018-09-25T04:03:12.791Z,34.40
2018-09-25T04:05:48.909Z,34.30
2018-09-25T04:08:25.759Z,34.30
2018-09-25T04:11:01.851Z,34.30
2018-09-25T04:13:38.238Z,34.40
2018-09-25T04:16:14.322Z,34.60
2018-09-25T04:18:50.826Z,34.60
2018-09-25T04:21:27.085Z,34.70
2018-09-25T04:24:03.882Z,34.90
2018-09-25T04:26:39.868Z,35.10
2018-09-25T04:29:16.270Z,35.20
2018-09-25T04:31:52.329Z,35.20
2018-09-25T04:34:28.778Z,35.70
2018-09-25T04:37:07.316Z,36.00
2018-09-25T04:39:43.726Z,36.00
2018-09-25T04:42:19.870Z,36.20
2018-09-25T04:44:56.437Z,36.50
2018-09-25T04:47:32.290Z,37.00
2018-09-25T04:50:08.927Z,37.50
2018-09-25T04:52:45.141Z,37.50
2018-09-25T04:55:21.810Z,37.60
2018-09-25T04:57:57.645Z,38.30
2018-09-25T05:00:34.138Z,39.10
2018-09-25T05:03:10.473Z,39.70
2018-09-25T05:05:46.981Z,40.70
2018-09-25T05:08:22.821Z,41.20
2018-09-25T05:10:59.292Z,40.50
2018-09-25T05:13:35.457Z,40.50
2018-09-25T05:16:11.646Z,40.00
2018-09-25T05:18:47.451Z,39.60
2018-09-25T05:21:23.559Z,39.30
2018-09-25T05:23:59.649Z,39.30
2018-09-25T05:26:37.747Z,39.30
2018-09-25T05:29:14.298Z,39.10
2018-09-25T05:31:50.933Z,39.20
2018-09-25T05:34:26.693Z,39.10
2018-09-25T05:37:03.073Z,39.10
2018-09-25T05:39:40.688Z,39.50
2018-09-25T05:42:17.306Z,40.20
2018-09-25T05:44:53.419Z,41.50
2018-09-25T05:47:29.923Z,42.60
2018-09-25T05:50:05.997Z,43.70
2018-09-25T05:52:42.453Z,43.70
2018-09-25T05:55:18.357Z,43.80
2018-09-25T05:57:54.983Z,43.10
2018-09-25T06:00:31.126Z,42.50
2018-09-25T06:03:07.441Z,41.80
2018-09-25T06:05:43.540Z,41.40
2018-09-25T06:08:19.903Z,40.90
2018-09-25T06:10:55.749Z,40.60
2018-09-25T06:13:32.140Z,40.80
2018-09-25T06:16:08.234Z,40.60
2018-09-25T06:18:44.558Z,40.40
2018-09-25T06:21:20.494Z,40.20
2018-09-25T06:23:56.658Z,40.10
2018-09-25T06:26:32.797Z,40.20
2018-09-25T06:29:09.344Z,40.00
2018-09-25T06:31:45.191Z,40.00
2018-09-25T06:34:21.442Z,40.10
2018-09-25T06:36:57.571Z,40.20
2018-09-25T06:39:33.689Z,40.20
2018-09-25T06:42:11.402Z,40.30
2018-09-25T06:44:47.598Z,40.30
2018-09-25T06:47:23.496Z,40.20
2018-09-25T06:50:00.443Z,40.30
2018-09-25T06:52:36.474Z,40.50
2018-09-25T06:55:13.420Z,40.60
2018-09-25T06:57:49.692Z,40.50
2018-09-25T07:03:05.822Z,40.80
2018-09-25T07:05:41.941Z,40.90
2018-09-25T07:08:18.144Z,41.00
2018-09-25T07:10:54.206Z,41.10
2018-09-25T07:13:31.248Z,41.20
2018-09-25T07:16:07.210Z,41.50
2018-09-25T07:18:43.302Z,41.90
2018-09-25T07:21:19.442Z,43.20
2018-09-25T07:23:55.533Z,44.70
2018-09-25T07:26:31.677Z,44.80
2018-09-25T07:29:07.945Z,45.50
2018-09-25T07:31:43.977Z,46.10
2018-09-25T07:34:20.458Z,45.10
2018-09-25T07:36:56.622Z,44.40
2018-09-25T07:39:32.955Z,43.60
2018-09-25T07:42:10.354Z,42.70
2018-09-25T07:44:46.600Z,42.60
2018-09-25T07:47:22.801Z,42.20
2018-09-25T07:49:59.383Z,42.30
2018-09-25T07:52:35.506Z,41.90
2018-09-25T07:55:11.571Z,41.60
2018-09-25T07:57:47.538Z,41.70
2018-09-25T08:00:24.002Z,41.50
2018-09-25T08:02:59.882Z,41.50
2018-09-25T08:05:36.386Z,41.50
2018-09-25T08:08:12.481Z,41.30
2018-09-25T08:10:48.824Z,41.20
2018-09-25T08:13:24.849Z,41.10
2018-09-25T08:16:01.570Z,41.20
2018-09-25T08:18:37.725Z,41.20
2018-09-25T08:21:14.419Z,41.30
2018-09-25T08:23:50.362Z,41.30
2018-09-25T08:26:26.793Z,41.00
2018-09-25T08:29:03.015Z,40.80
2018-09-25T08:31:39.139Z,39.80
2018-09-25T08:34:15.002Z,39.90
2018-09-25T08:36:51.374Z,39.60
2018-09-25T08:39:27.467Z,38.70
2018-09-25T08:42:03.826Z,38.80
2018-09-25T08:44:40.626Z,39.60
2018-09-25T08:47:17.159Z,40.00
2018-09-25T08:49:53.238Z,40.20
2018-09-25T08:52:29.434Z,40.10
2018-09-25T08:55:05.471Z,39.70
2018-09-25T08:57:42.094Z,40.00
2018-09-25T09:00:18.028Z,40.20
2018-09-25T09:02:54.334Z,40.30
2018-09-25T09:05:30.439Z,40.10
2018-09-25T09:08:06.699Z,40.00
2018-09-25T09:10:42.574Z,40.00
2018-09-25T09:13:18.987Z,39.90
2018-09-25T09:15:54.905Z,39.80
2018-09-25T09:18:31.338Z,39.70
2018-09-25T09:21:07.798Z,39.90
2018-09-25T09:23:44.200Z,40.10
2018-09-25T09:26:20.189Z,40.00
2018-09-25T09:28:57.497Z,39.80
2018-09-25T09:31:33.646Z,39.80
2018-09-25T09:34:10.719Z,39.80
2018-09-25T09:36:46.859Z,39.80
2018-09-25T09:39:23.586Z,39.70
2018-09-25T09:41:59.772Z,39.70
2018-09-25T09:44:36.144Z,39.70
2018-09-25T09:47:12.718Z,39.60
2018-09-25T09:49:49.353Z,39.50
2018-09-25T09:52:25.578Z,39.60
2018-09-25T09:55:02.293Z,39.60
2018-09-25T09:57:38.413Z,39.40
2018-09-25T10:00:14.626Z,39.40
2018-09-25T10:02:50.701Z,39.40
2018-09-25T10:05:27.278Z,39.20
2018-09-25T10:08:03.439Z,39.10
2018-09-25T10:10:40.226Z,39.10
2018-09-25T10:13:16.247Z,39.10
2018-09-25T10:15:52.634Z,38.90
2018-09-25T10:18:28.405Z,38.90
2018-09-25T10:21:05.011Z,38.80
2018-09-25T10:23:41.161Z,38.90
2018-09-25T10:26:17.453Z,38.80
2018-09-25T10:28:53.582Z,38.60
2018-09-25T10:31:29.905Z,38.60
2018-09-25T10:34:06.104Z,38.60
2018-09-25T10:36:42.926Z,38.70
2018-09-25T10:39:18.897Z,38.70
2018-09-25T10:41:55.091Z,38.70
2018-09-25T10:44:31.305Z,38.50
2018-09-25T10:47:07.583Z,38.50
2018-09-25T10:49:45.766Z,38.40
2018-09-25T10:52:22.294Z,38.40
2018-09-25T10:54:58.430Z,38.30
2018-09-25T10:57:34.912Z,38.40
2018-09-25T11:00:12.362Z,38.40
2018-09-25T11:02:48.922Z,38.10
2018-09-25T11:05:25.022Z,38.10
2018-09-25T11:08:01.932Z,38.00
2018-09-25T11:10:37.831Z,38.20
2018-09-25T11:13:14.371Z,38.20
2018-09-25T11:15:50.426Z,37.90
2018-09-25T11:18:26.513Z,37.90
2018-09-25T11:21:02.618Z,37.80
2018-09-25T11:23:39.003Z,37.80
2018-09-25T11:26:14.911Z,37.80
2018-09-25T11:28:51.293Z,37.80
2018-09-25T11:31:27.414Z,37.80
2018-09-25T11:34:03.661Z,37.90
2018-09-25T11:36:39.530Z,37.90
2018-09-25T11:39:16.111Z,37.70
2018-09-25T11:41:51.962Z,37.60
2018-09-25T11:44:28.610Z,37.60
2018-09-25T11:47:04.856Z,37.40
2018-09-25T11:49:41.384Z,37.50
2018-09-25T11:52:18.106Z,37.50
2018-09-25T11:54:54.566Z,37.30
2018-09-25T11:57:30.473Z,37.20
2018-09-25T12:00:06.921Z,37.10
2018-09-25T12:02:43.055Z,37.10
2018-09-25T12:05:19.325Z,37.10
2018-09-25T12:07:55.944Z,37.00
2018-09-25T12:10:32.705Z,36.90
2018-09-25T12:13:08.867Z,36.90
2018-09-25T12:15:45.147Z,36.90
2018-09-25T12:18:21.588Z,37.00
2018-09-25T12:20:57.710Z,37.00
2018-09-25T12:23:33.774Z,37.10
2018-09-25T12:26:10.341Z,37.00
2018-09-25T12:28:46.448Z,36.90
2018-09-25T12:31:22.796Z,36.90
2018-09-25T12:33:59.854Z,36.90
2018-09-25T12:36:36.400Z,36.70
2018-09-25T12:39:14.070Z,36.80
2018-09-25T12:41:50.327Z,36.70
2018-09-25T12:44:26.954Z,36.70
2018-09-25T12:47:03.333Z,36.60
2018-09-25T12:49:39.599Z,36.60
2018-09-25T12:52:16.043Z,36.60
2018-09-25T12:54:53.223Z,36.50
2018-09-25T12:57:29.906Z,36.60
2018-09-25T13:00:06.269Z,36.50
2018-09-25T13:02:42.764Z,36.40
2018-09-25T13:05:18.822Z,36.50
2018-09-25T13:07:55.183Z,36.50
2018-09-25T13:10:31.053Z,36.50
2018-09-25T13:13:07.178Z,36.40
2018-09-25T13:15:43.062Z,36.40
2018-09-25T13:18:19.498Z,36.30
2018-09-25T13:20:55.630Z,36.20
2018-09-25T13:23:31.863Z,36.30
2018-09-25T13:26:08.307Z,36.30
2018-09-25T13:28:45.182Z,36.20
2018-09-25T13:31:21.050Z,36.20
2018-09-25T13:33:57.626Z,36.20
2018-09-25T13:36:33.682Z,36.20
2018-09-25T13:39:10.370Z,36.20
2018-09-25T13:41:46.423Z,36.20
2018-09-25T13:44:23.117Z,36.20
2018-09-25T13:46:59.122Z,36.10
2018-09-25T13:49:35.902Z,36.10
2018-09-25T13:52:11.962Z,36.00
2018-09-25T13:54:48.442Z,36.00
2018-09-25T13:57:25.089Z,36.00
2018-09-25T14:00:03.074Z,35.90
2018-09-25T14:02:38.978Z,35.90
2018-09-25T14:05:15.538Z,35.90
2018-09-25T14:07:51.766Z,35.80
2018-09-25T14:10:28.002Z,35.80
2018-09-25T14:13:03.899Z,35.70
2018-09-25T14:15:40.809Z,35.60
2018-09-25T14:18:17.237Z,35.60
2018-09-25T14:20:53.499Z,35.50
2018-09-25T14:23:29.370Z,35.50
2018-09-25T14:26:05.526Z,35.40
2018-09-25T14:28:41.625Z,35.30
2018-09-25T14:31:18.110Z,35.30
2018-09-25T14:33:54.544Z,35.20
2018-09-25T14:36:30.603Z,35.20
2018-09-25T14:39:06.751Z,35.10
2018-09-25T14:41:43.162Z,35.20
2018-09-25T14:44:19.265Z,35.10
2018-09-25T14:46:55.686Z,35.10
2018-09-25T14:49:31.590Z,35.10
2018-09-25T14:52:08.711Z,35.10
2018-09-25T14:54:44.534Z,35.10
2018-09-25T14:57:21.334Z,35.10
2018-09-25T14:59:57.667Z,35.00
2018-09-25T15:02:34.166Z,35.00
2018-09-25T15:05:10.370Z,35.00
2018-09-25T15:07:46.490Z,35.00
2018-09-25T15:10:22.275Z,34.90
2018-09-25T15:12:58.439Z,34.90
2018-09-25T15:15:34.300Z,34.90
2018-09-25T15:18:15.673Z,34.90
2018-09-25T15:20:51.589Z,34.90
2018-09-25T15:23:27.708Z,34.90
2018-09-25T15:26:03.825Z,34.90
2018-09-25T15:28:40.115Z,34.80
2018-09-25T15:31:16.318Z,34.80
2018-09-25T15:33:52.567Z,34.70
2018-09-25T15:36:28.620Z,34.70
2018-09-25T15:39:04.873Z,34.70
2018-09-25T15:41:41.171Z,34.70
2018-09-25T15:44:17.232Z,34.60
2018-09-25T15:46:53.322Z,34.60
2018-09-25T15:49:29.914Z,34.60
2018-09-25T15:52:05.635Z,34.50
2018-09-25T15:54:41.889Z,34.50
2018-09-25T15:57:18.090Z,34.50
2018-09-25T15:59:54.701Z,34.50
2018-09-25T16:02:30.967Z,34.40
2018-09-25T16:05:07.314Z,34.40
2018-09-25T16:07:44.526Z,34.40
2018-09-25T16:10:20.946Z,34.40
2018-09-25T16:12:57.078Z,34.40
2018-09-25T16:15:33.842Z,34.30
2018-09-25T16:18:12.102Z,34.30
2018-09-25T16:20:50.889Z,34.30
2018-09-25T16:23:27.245Z,34.30
2018-09-25T16:26:03.237Z,34.30
2018-09-25T16:28:39.351Z,34.40
2018-09-25T16:31:16.106Z,34.40
2018-09-25T16:33:52.214Z,34.30
2018-09-25T16:36:28.494Z,34.30
2018-09-25T16:39:04.649Z,34.30
2018-09-25T16:41:40.921Z,34.30
2018-09-25T16:44:16.928Z,34.20
2018-09-25T16:46:53.354Z,34.20
2018-09-25T16:49:29.618Z,34.20
2018-09-25T16:52:05.967Z,34.20
2018-09-25T16:54:42.259Z,34.20
2018-09-25T16:57:18.893Z,34.10
2018-09-25T16:59:55.103Z,34.20
2018-09-25T17:02:31.358Z,34.10
2018-09-25T17:05:07.717Z,34.10
2018-09-25T17:07:44.217Z,34.10
2018-09-25T17:10:20.304Z,34.10
2018-09-25T17:12:56.645Z,34.10
2018-09-25T17:15:32.657Z,34.00
2018-09-25T17:18:09.322Z,34.00
2018-09-25T17:20:45.423Z,34.00
2018-09-25T17:23:22.821Z,34.00
2018-09-25T17:25:58.870Z,34.00
2018-09-25T17:28:34.914Z,34.00
2018-09-25T17:31:11.126Z,34.00
2018-09-25T17:33:47.674Z,34.00
2018-09-25T17:36:23.556Z,33.90
2018-09-25T17:39:00.180Z,33.90
2018-09-25T17:41:36.601Z,33.90
2018-09-25T17:44:13.506Z,33.90
2018-09-25T17:46:49.683Z,33.90
2018-09-25T17:49:26.355Z,33.90
2018-09-25T17:52:02.393Z,33.90
2018-09-25T17:54:39.457Z,33.90
2018-09-25T17:57:15.743Z,33.90
2018-09-25T17:59:52.197Z,33.90
2018-09-25T18:02:28.409Z,33.90
2018-09-25T18:05:04.591Z,33.90
2018-09-25T18:07:40.614Z,33.80
2018-09-25T18:10:16.894Z,33.80
2018-09-25T18:12:52.821Z,33.80
2018-09-25T18:15:29.213Z,33.90
2018-09-25T18:18:05.339Z,33.90
2018-09-25T18:20:41.766Z,33.90
2018-09-25T18:23:17.690Z,33.90
2018-09-25T18:25:56.777Z,33.90
2018-09-25T18:28:32.847Z,33.90
2018-09-25T18:31:09.451Z,33.90
2018-09-25T18:33:45.706Z,33.80
2018-09-25T18:36:22.115Z,33.80
2018-09-25T18:38:58.544Z,33.70
2018-09-25T18:41:34.867Z,33.70
2018-09-25T18:44:11.095Z,33.70
2018-09-25T18:46:48.282Z,33.80
2018-09-25T18:49:24.031Z,33.70
2018-09-25T18:52:00.462Z,33.70
2018-09-25T18:54:36.573Z,33.70
2018-09-25T18:57:12.991Z,33.70
2018-09-25T18:59:49.231Z,33.70
2018-09-25T19:02:26.862Z,33.60
2018-09-25T19:05:03.081Z,33.60
2018-09-25T19:07:39.302Z,33.60
2018-09-25T19:10:15.429Z,33.50
2018-09-25T19:12:52.447Z,33.50
2018-09-25T19:15:28.566Z,33.50
2018-09-25T19:18:05.084Z,33.60
2018-09-25T19:20:41.023Z,33.60
2018-09-25T19:23:17.438Z,33.60
2018-09-25T19:25:53.469Z,33.60
2018-09-25T19:28:33.072Z,33.60
2018-09-25T19:31:10.193Z,33.60
2018-09-25T19:33:46.390Z,33.50
2018-09-25T19:36:22.645Z,33.50
2018-09-25T19:38:59.401Z,33.40
2018-09-25T19:41:35.338Z,33.50
2018-09-25T19:44:12.130Z,33.50
2018-09-25T19:46:48.270Z,33.50
2018-09-25T19:49:24.506Z,33.50
2018-09-25T19:52:00.415Z,33.50
2018-09-25T19:54:36.887Z,33.60
2018-09-25T19:57:12.991Z,33.50
2018-09-25T19:59:49.242Z,33.50
2018-09-25T20:02:25.394Z,33.50
2018-09-25T20:05:05.019Z,33.50
2018-09-25T20:07:41.111Z,33.50
2018-09-25T20:10:17.494Z,33.50
2018-09-25T20:12:53.720Z,33.50
2018-09-25T20:15:29.930Z,33.40
2018-09-25T20:18:05.975Z,33.40
2018-09-25T20:20:42.481Z,33.40
2018-09-25T20:23:18.333Z,33.40
2018-09-25T20:25:55.022Z,33.30
2018-09-25T20:28:31.942Z,33.30
2018-09-25T20:31:08.675Z,33.30
2018-09-25T20:33:44.526Z,33.30
2018-09-25T20:36:21.410Z,33.30
2018-09-25T20:38:57.361Z,33.30
2018-09-25T20:41:33.338Z,33.30
2018-09-25T20:44:09.522Z,33.30
2018-09-25T20:46:45.621Z,33.30
2018-09-25T20:49:21.487Z,33.30
2018-09-25T20:51:58.154Z,33.30
2018-09-25T20:54:33.966Z,33.30
2018-09-25T20:57:10.886Z,33.30
2018-09-25T20:59:46.877Z,33.30
2018-09-25T21:02:23.002Z,33.30
2018-09-25T21:04:58.886Z,33.30
2018-09-25T21:07:35.017Z,33.30
2018-09-25T21:10:11.849Z,33.20
2018-09-25T21:12:48.812Z,33.20
2018-09-25T21:15:24.995Z,33.20
2018-09-25T21:18:01.594Z,33.10
2018-09-25T21:20:37.615Z,33.00
2018-09-25T21:23:13.925Z,32.90
2018-09-25T21:25:50.032Z,32.80
2018-09-25T21:28:26.424Z,32.70
2018-09-25T21:31:03.510Z,32.70
2018-09-25T21:33:39.910Z,32.50
2018-09-25T21:36:16.103Z,32.50
2018-09-25T21:38:52.414Z,32.40
2018-09-25T21:41:28.330Z,32.30
2018-09-25T21:44:05.005Z,32.20
2018-09-25T21:46:41.337Z,32.10
2018-09-25T21:49:18.695Z,32.10
2018-09-25T21:51:55.009Z,32.10
2018-09-25T21:54:31.636Z,32.10
2018-09-25T21:57:09.148Z,32.10
2018-09-25T21:59:45.578Z,32.00
2018-09-25T22:02:21.544Z,31.90
2018-09-25T22:04:58.174Z,31.80
2018-09-25T22:07:34.007Z,31.80
2018-09-25T22:10:10.310Z,31.80
2018-09-25T22:12:46.570Z,31.80
2018-09-25T22:15:22.983Z,31.80
2018-09-25T22:17:58.941Z,31.70
2018-09-25T22:20:35.438Z,31.70
2018-09-25T22:23:11.306Z,31.60
2018-09-25T22:25:47.506Z,31.60
2018-09-25T22:28:23.718Z,31.60
2018-09-25T22:31:00.317Z,31.60
2018-09-25T22:33:37.454Z,31.50
2018-09-25T22:36:14.122Z,31.40
2018-09-25T22:38:50.371Z,31.40
2018-09-25T22:41:26.335Z,31.40
2018-09-25T22:44:03.001Z,31.30
2018-09-25T22:46:39.361Z,31.40
2018-09-25T22:49:15.574Z,31.50
2018-09-25T22:51:51.798Z,31.40
2018-09-25T22:54:27.767Z,31.30
2018-09-25T22:57:04.158Z,31.40
2018-09-25T22:59:40.226Z,31.30
2018-09-25T23:02:16.568Z,31.40
2018-09-25T23:04:52.930Z,31.30
2018-09-25T23:07:29.429Z,31.30
2018-09-25T23:10:05.366Z,31.30
2018-09-25T23:12:42.011Z,31.20
2018-09-25T23:15:18.404Z,31.10
2018-09-25T23:17:54.433Z,31.00
2018-09-25T23:20:30.384Z,31.00
2018-09-25T23:23:06.405Z,31.00
2018-09-25T23:25:42.373Z,31.10
2018-09-25T23:28:18.587Z,31.10
2018-09-25T23:30:54.449Z,31.20
2018-09-25T23:33:30.735Z,31.10
2018-09-25T23:36:07.738Z,31.10
2018-09-25T23:38:44.194Z,31.10
2018-09-25T23:41:22.698Z,31.00
2018-09-25T23:57:14.523Z,31.10
2018-09-25T23:59:53.019Z,31.10
